sensor_id;sensor_type;location;lat;lon;timestamp;pressure;altitude;pressure_sealevel;temperature;humidity
23223;BME280;11780;13.904;100.620;2023-03-24T00:02:00;100885.28;;;31.85;71.23
23223;BME280;11780;13.904;100.620;2023-03-24T00:04:31;100893.59;;;31.85;71.03
23223;BME280;11780;13.904;100.620;2023-03-24T00:07:01;100892.78;;;31.85;71.18
23223;BME280;11780;13.904;100.620;2023-03-24T00:09:32;100894.75;;;31.84;71.00
23223;BME280;11780;13.904;100.620;2023-03-24T00:12:02;100903.84;;;31.85;71.05
23223;BME280;11780;13.904;100.620;2023-03-24T00:14:33;100902.72;;;31.86;71.02
23223;BME280;11780;13.904;100.620;2023-03-24T00:17:07;100907.91;;;31.87;71.12
23223;BME280;11780;13.904;100.620;2023-03-24T00:19:43;100911.81;;;31.86;71.46
23223;BME280;11780;13.904;100.620;2023-03-24T00:22:16;100918.19;;;31.87;71.23
23223;BME280;11780;13.904;100.620;2023-03-24T00:24:50;100915.91;;;31.89;71.21
23223;BME280;11780;13.904;100.620;2023-03-24T00:27:20;100927.28;;;31.87;71.00
23223;BME280;11780;13.904;100.620;2023-03-24T00:29:51;100930.03;;;31.87;71.28
23223;BME280;11780;13.904;100.620;2023-03-24T00:32:21;100937.22;;;31.88;71.19
23223;BME280;11780;13.904;100.620;2023-03-24T00:35:11;100939.16;;;31.88;71.32
23223;BME280;11780;13.904;100.620;2023-03-24T00:37:42;100941.09;;;31.87;71.11
23223;BME280;11780;13.904;100.620;2023-03-24T00:40:14;100947.47;;;31.88;71.38
23223;BME280;11780;13.904;100.620;2023-03-24T00:42:46;100947.47;;;31.88;71.07
23223;BME280;11780;13.904;100.620;2023-03-24T00:45:20;100956.56;;;31.88;71.33
23223;BME280;11780;13.904;100.620;2023-03-24T00:48:09;100955.78;;;31.88;70.88
23223;BME280;11780;13.904;100.620;2023-03-24T00:50:43;100963.25;;;31.87;70.76
23223;BME280;11780;13.904;100.620;2023-03-24T00:53:16;100966.84;;;31.88;70.99
23223;BME280;11780;13.904;100.620;2023-03-24T00:55:47;100964.06;;;31.88;71.29
23223;BME280;11780;13.904;100.620;2023-03-24T00:58:18;100963.25;;;31.87;71.02
23223;BME280;11780;13.904;100.620;2023-03-24T01:00:54;100974.31;;;31.87;71.54
23223;BME280;11780;13.904;100.620;2023-03-24T01:03:25;100981.47;;;31.88;71.36
23223;BME280;11780;13.904;100.620;2023-03-24T01:06:14;100989.47;;;31.90;71.30
23223;BME280;11780;13.904;100.620;2023-03-24T01:08:45;100989.75;;;31.88;71.26
23223;BME280;11780;13.904;100.620;2023-03-24T01:11:16;100993.84;;;31.91;71.10
23223;BME280;11780;13.904;100.620;2023-03-24T01:13:47;101004.59;;;31.93;71.28
23223;BME280;11780;13.904;100.620;2023-03-24T01:16:18;101006.56;;;31.92;71.32
23223;BME280;11780;13.904;100.620;2023-03-24T01:18:49;101004.91;;;31.91;71.34
23223;BME280;11780;13.904;100.620;2023-03-24T01:21:19;101000.69;;;31.94;71.43
23223;BME280;11780;13.904;100.620;2023-03-24T01:23:50;101001.00;;;31.92;71.05
23223;BME280;11780;13.904;100.620;2023-03-24T01:26:21;101007.69;;;31.91;71.11
23223;BME280;11780;13.904;100.620;2023-03-24T01:28:52;101007.00;;;31.94;71.03
23223;BME280;11780;13.904;100.620;2023-03-24T01:31:22;101006.22;;;31.94;71.27
23223;BME280;11780;13.904;100.620;2023-03-24T01:34:08;101018.91;;;31.95;71.11
23223;BME280;11780;13.904;100.620;2023-03-24T01:36:38;101023.31;;;31.96;71.39
23223;BME280;11780;13.904;100.620;2023-03-24T01:39:09;101030.97;;;31.99;70.83
23223;BME280;11780;13.904;100.620;2023-03-24T01:41:39;101025.44;;;31.99;70.66
23223;BME280;11780;13.904;100.620;2023-03-24T01:44:32;101038.13;;;32.00;70.81
23223;BME280;11780;13.904;100.620;2023-03-24T01:47:07;101035.03;;;32.01;70.71
23223;BME280;11780;13.904;100.620;2023-03-24T01:49:52;101034.19;;;32.01;70.34
23223;BME280;11780;13.904;100.620;2023-03-24T01:52:29;101045.75;;;32.03;70.51
23223;BME280;11780;13.904;100.620;2023-03-24T01:55:17;101041.03;;;32.03;70.52
23223;BME280;11780;13.904;100.620;2023-03-24T01:57:55;101044.31;;;32.06;70.37
23223;BME280;11780;13.904;100.620;2023-03-24T02:00:35;101053.09;;;32.08;70.21
23223;BME280;11780;13.904;100.620;2023-03-24T02:03:29;101057.81;;;32.07;70.67
23223;BME280;11780;13.904;100.620;2023-03-24T02:06:04;101057.47;;;32.09;69.77
23223;BME280;11780;13.904;100.620;2023-03-24T02:08:52;101058.63;;;32.08;69.69
23223;BME280;11780;13.904;100.620;2023-03-24T02:11:42;101069.72;;;32.08;69.69
23223;BME280;11780;13.904;100.620;2023-03-24T02:14:14;101063.84;;;32.09;69.55
23223;BME280;11780;13.904;100.620;2023-03-24T02:17:17;101057.16;;;32.10;69.46
23223;BME280;11780;13.904;100.620;2023-03-24T02:35:55;101067.91;;;32.12;68.84
23223;BME280;11780;13.904;100.620;2023-03-24T02:38:54;101076.69;;;32.14;68.77
23223;BME280;11780;13.904;100.620;2023-03-24T02:41:34;101073.63;;;32.15;68.72
23223;BME280;11780;13.904;100.620;2023-03-24T02:44:20;101067.25;;;32.15;68.63
23223;BME280;11780;13.904;100.620;2023-03-24T02:47:19;101073.63;;;32.15;68.40
23223;BME280;11780;13.904;100.620;2023-03-24T02:50:30;101078.00;;;32.16;68.32
23223;BME280;11780;13.904;100.620;2023-03-24T02:59:13;101063.34;;;32.16;68.08
23223;BME280;11780;13.904;100.620;2023-03-24T03:02:04;101063.50;;;32.19;67.92
23223;BME280;11780;13.904;100.620;2023-03-24T03:05:05;101062.53;;;32.15;68.29
23223;BME280;11780;13.904;100.620;2023-03-24T03:07:37;101064.97;;;32.17;67.43
23223;BME280;11780;13.904;100.620;2023-03-24T03:10:36;101069.69;;;32.16;67.34
23223;BME280;11780;13.904;100.620;2023-03-24T03:16:50;101061.06;;;32.18;67.16
23223;BME280;11780;13.904;100.620;2023-03-24T03:19:49;101062.69;;;32.19;66.76
23223;BME280;11780;13.904;100.620;2023-03-24T03:23:01;101057.16;;;32.19;66.46
23223;BME280;11780;13.904;100.620;2023-03-24T03:25:38;101057.47;;;32.17;66.71
23223;BME280;11780;13.904;100.620;2023-03-24T03:28:25;101048.53;;;32.20;66.65
23223;BME280;11780;13.904;100.620;2023-03-24T03:31:05;101049.34;;;32.21;66.62
23223;BME280;11780;13.904;100.620;2023-03-24T03:34:23;101037.44;;;32.20;66.46
23223;BME280;11780;13.904;100.620;2023-03-24T03:39:32;101027.53;;;32.19;66.20
23223;BME280;11780;13.904;100.620;2023-03-24T03:42:08;101027.22;;;32.21;66.31
23223;BME280;11780;13.904;100.620;2023-03-24T03:44:39;101029.66;;;32.23;66.53
23223;BME280;11780;13.904;100.620;2023-03-24T03:47:28;101034.03;;;32.24;66.27
23223;BME280;11780;13.904;100.620;2023-03-24T03:50:02;101022.16;;;32.23;66.31
23223;BME280;11780;13.904;100.620;2023-03-24T03:52:36;101014.66;;;32.24;66.03
23223;BME280;11780;13.904;100.620;2023-03-24T03:55:08;101012.69;;;32.24;65.82
23223;BME280;11780;13.904;100.620;2023-03-24T03:57:41;101016.28;;;32.25;65.86
23223;BME280;11780;13.904;100.620;2023-03-24T04:00:23;101016.28;;;32.25;65.79
23223;BME280;11780;13.904;100.620;2023-03-24T04:03:38;101012.41;;;32.26;65.53
23223;BME280;11780;13.904;100.620;2023-03-24T04:15:57;101001.00;;;32.27;65.37
23223;BME280;11780;13.904;100.620;2023-03-24T04:20:00;100985.72;;;32.30;64.86
23223;BME280;11780;13.904;100.620;2023-03-24T04:28:24;100972.34;;;32.32;65.07
23223;BME280;11780;13.904;100.620;2023-03-24T04:31:22;100966.50;;;32.33;64.70
23223;BME280;11780;13.904;100.620;2023-03-24T04:37:00;100957.84;;;32.35;64.41
23223;BME280;11780;13.904;100.620;2023-03-24T04:39:42;100952.66;;;32.33;64.80
23223;BME280;11780;13.904;100.620;2023-03-24T04:42:36;100941.88;;;32.32;64.50
23223;BME280;11780;13.904;100.620;2023-03-24T04:45:30;100933.75;;;32.36;64.81
23223;BME280;11780;13.904;100.620;2023-03-24T04:48:20;100929.03;;;32.36;64.54
23223;BME280;11780;13.904;100.620;2023-03-24T04:51:11;100926.75;;;32.38;64.52
23223;BME280;11780;13.904;100.620;2023-03-24T04:54:00;100924.13;;;32.42;64.25
23223;BME280;11780;13.904;100.620;2023-03-24T04:57:12;100927.72;;;32.42;63.92
23223;BME280;11780;13.904;100.620;2023-03-24T04:59:40;100918.28;;;32.43;63.98
23223;BME280;11780;13.904;100.620;2023-03-24T05:02:30;100911.09;;;32.42;64.02
23223;BME280;11780;13.904;100.620;2023-03-24T05:05:19;100903.78;;;32.46;63.83
23223;BME280;11780;13.904;100.620;2023-03-24T05:07:49;100901.47;;;32.48;63.64
23223;BME280;11780;13.904;100.620;2023-03-24T05:10:36;100899.16;;;32.50;63.34
23223;BME280;11780;13.904;100.620;2023-03-24T05:13:07;100896.41;;;32.50;63.49
23223;BME280;11780;13.904;100.620;2023-03-24T05:15:48;100886.97;;;32.52;63.15
23223;BME280;11780;13.904;100.620;2023-03-24T05:18:26;100873.94;;;32.52;63.42
23223;BME280;11780;13.904;100.620;2023-03-24T05:20:57;100866.28;;;32.49;63.29
23223;BME280;11780;13.904;100.620;2023-03-24T05:23:28;100870.69;;;32.50;62.47
23223;BME280;11780;13.904;100.620;2023-03-24T05:25:59;100857.63;;;32.50;62.18
23223;BME280;11780;13.904;100.620;2023-03-24T05:28:34;100865.47;;;32.48;62.80
23223;BME280;11780;13.904;100.620;2023-03-24T05:31:05;100858.00;;;32.49;62.71
23223;BME280;11780;13.904;100.620;2023-03-24T05:33:54;100856.19;;;32.53;62.61
23223;BME280;11780;13.904;100.620;2023-03-24T05:36:43;100848.69;;;32.54;62.41
23223;BME280;11780;13.904;100.620;2023-03-24T05:39:17;100842.00;;;32.55;62.55
23223;BME280;11780;13.904;100.620;2023-03-24T05:41:55;100835.78;;;32.58;62.66
23223;BME280;11780;13.904;100.620;2023-03-24T05:44:25;100832.53;;;32.56;62.52
23223;BME280;11780;13.904;100.620;2023-03-24T05:47:13;100824.25;;;32.56;62.44
23223;BME280;11780;13.904;100.620;2023-03-24T05:49:45;100827.97;;;32.60;62.28
23223;BME280;11780;13.904;100.620;2023-03-24T05:52:32;100820.94;;;32.62;62.33
23223;BME280;11780;13.904;100.620;2023-03-24T05:55:23;100806.31;;;32.62;62.56
23223;BME280;11780;13.904;100.620;2023-03-24T05:58:01;100800.75;;;32.62;62.47
23223;BME280;11780;13.904;100.620;2023-03-24T06:00:42;100800.41;;;32.63;62.55
23223;BME280;11780;13.904;100.620;2023-03-24T06:03:31;100791.75;;;32.65;62.59
23223;BME280;11780;13.904;100.620;2023-03-24T06:06:21;100784.94;;;32.62;62.58
23223;BME280;11780;13.904;100.620;2023-03-24T06:08:52;100793.38;;;32.66;62.53
23223;BME280;11780;13.904;100.620;2023-03-24T06:11:25;100784.59;;;32.64;62.37
23223;BME280;11780;13.904;100.620;2023-03-24T06:14:13;100776.75;;;32.66;62.30
23223;BME280;11780;13.904;100.620;2023-03-24T06:16:56;100775.63;;;32.67;62.44
23223;BME280;11780;13.904;100.620;2023-03-24T06:19:28;100767.31;;;32.67;62.50
23223;BME280;11780;13.904;100.620;2023-03-24T06:22:18;100768.63;;;32.70;62.31
23223;BME280;11780;13.904;100.620;2023-03-24T06:24:49;100759.63;;;32.73;62.33
23223;BME280;11780;13.904;100.620;2023-03-24T06:27:19;100743.00;;;32.73;62.29
23223;BME280;11780;13.904;100.620;2023-03-24T06:30:15;100739.91;;;32.74;62.31
23223;BME280;11780;13.904;100.620;2023-03-24T06:32:46;100733.69;;;32.77;62.28
23223;BME280;11780;13.904;100.620;2023-03-24T06:35:32;100727.81;;;32.79;62.19
23223;BME280;11780;13.904;100.620;2023-03-24T06:38:20;100721.91;;;32.80;62.31
23223;BME280;11780;13.904;100.620;2023-03-24T06:41:09;100707.78;;;32.82;62.13
23223;BME280;11780;13.904;100.620;2023-03-24T06:43:39;100703.88;;;32.83;62.33
23223;BME280;11780;13.904;100.620;2023-03-24T06:46:25;100703.03;;;32.83;62.50
23223;BME280;11780;13.904;100.620;2023-03-24T06:48:56;100696.03;;;32.85;62.36
23223;BME280;11780;13.904;100.620;2023-03-24T06:51:26;100698.31;;;32.83;62.42
23223;BME280;11780;13.904;100.620;2023-03-24T06:54:15;100689.19;;;32.83;62.50
23223;BME280;11780;13.904;100.620;2023-03-24T06:56:45;100689.66;;;32.85;62.45
23223;BME280;11780;13.904;100.620;2023-03-24T06:59:17;100684.47;;;32.83;62.63
23223;BME280;11780;13.904;100.620;2023-03-24T07:01:53;100676.97;;;32.84;62.56
23223;BME280;11780;13.904;100.620;2023-03-24T07:04:26;100667.97;;;32.87;62.54
23223;BME280;11780;13.904;100.620;2023-03-24T07:07:07;100675.94;;;32.88;62.66
23223;BME280;11780;13.904;100.620;2023-03-24T07:09:42;100670.06;;;32.90;62.57
23223;BME280;11780;13.904;100.620;2023-03-24T07:12:13;100673.31;;;32.92;62.42
23223;BME280;11780;13.904;100.620;2023-03-24T07:14:44;100660.25;;;32.92;62.73
23223;BME280;11780;13.904;100.620;2023-03-24T07:17:29;100657.63;;;32.96;62.64
23223;BME280;11780;13.904;100.620;2023-03-24T07:20:34;100664.78;;;32.97;62.72
23223;BME280;11780;13.904;100.620;2023-03-24T07:23:21;100645.06;;;32.99;62.71
23223;BME280;11780;13.904;100.620;2023-03-24T07:26:16;100645.53;;;33.01;62.58
23223;BME280;11780;13.904;100.620;2023-03-24T07:28:46;100654.16;;;32.99;62.83
23223;BME280;11780;13.904;100.620;2023-03-24T07:31:35;100636.41;;;33.00;62.52
23223;BME280;11780;13.904;100.620;2023-03-24T07:34:21;100641.25;;;33.03;62.78
23223;BME280;11780;13.904;100.620;2023-03-24T07:36:54;100631.31;;;33.02;62.87
23223;BME280;11780;13.904;100.620;2023-03-24T07:39:28;100635.03;;;33.06;62.61
23223;BME280;11780;13.904;100.620;2023-03-24T07:42:00;100623.81;;;33.03;62.87
23223;BME280;11780;13.904;100.620;2023-03-24T07:44:40;100628.66;;;33.06;62.69
23223;BME280;11780;13.904;100.620;2023-03-24T07:47:26;100625.09;;;33.05;62.75
23223;BME280;11780;13.904;100.620;2023-03-24T07:49:56;100621.50;;;33.05;62.85
23223;BME280;11780;13.904;100.620;2023-03-24T07:52:27;100614.50;;;33.07;62.86
23223;BME280;11780;13.904;100.620;2023-03-24T07:55:17;100621.66;;;33.08;62.69
23223;BME280;11780;13.904;100.620;2023-03-24T07:58:05;100611.84;;;33.11;62.65
23223;BME280;11780;13.904;100.620;2023-03-24T08:00:40;100597.97;;;33.11;62.88
23223;BME280;11780;13.904;100.620;2023-03-24T08:03:29;100606.78;;;33.13;62.69
23223;BME280;11780;13.904;100.620;2023-03-24T08:06:52;100599.72;;;33.16;62.48
23223;BME280;11780;13.904;100.620;2023-03-24T08:09:38;100594.19;;;33.16;62.42
23223;BME280;11780;13.904;100.620;2023-03-24T08:12:26;100587.97;;;33.19;62.50
23223;BME280;11780;13.904;100.620;2023-03-24T08:14:57;100588.75;;;33.19;62.47
23223;BME280;11780;13.904;100.620;2023-03-24T08:17:27;100585.97;;;33.19;62.41
23223;BME280;11780;13.904;100.620;2023-03-24T08:19:58;100576.88;;;33.19;62.44
23223;BME280;11780;13.904;100.620;2023-03-24T08:22:32;100569.69;;;33.18;62.47
23223;BME280;11780;13.904;100.620;2023-03-24T08:25:02;100574.09;;;33.19;62.34
23223;BME280;11780;13.904;100.620;2023-03-24T08:27:33;100573.75;;;33.20;62.20
23223;BME280;11780;13.904;100.620;2023-03-24T08:30:05;100565.78;;;33.19;62.34
23223;BME280;11780;13.904;100.620;2023-03-24T08:32:36;100568.19;;;33.20;62.15
23223;BME280;11780;13.904;100.620;2023-03-24T08:35:28;100562.66;;;33.20;62.18
23223;BME280;11780;13.904;100.620;2023-03-24T08:38:18;100559.88;;;33.20;62.21
23223;BME280;11780;13.904;100.620;2023-03-24T08:40:51;100560.72;;;33.21;62.20
23223;BME280;11780;13.904;100.620;2023-03-24T08:43:40;100563.94;;;33.23;62.08
23223;BME280;11780;13.904;100.620;2023-03-24T08:46:32;100553.28;;;33.25;62.16
23223;BME280;11780;13.904;100.620;2023-03-24T08:49:21;100553.28;;;33.25;62.37
23223;BME280;11780;13.904;100.620;2023-03-24T08:51:51;100559.31;;;33.27;61.87
23223;BME280;11780;13.904;100.620;2023-03-24T08:54:21;100560.13;;;33.28;61.86
23223;BME280;11780;13.904;100.620;2023-03-24T08:56:53;100550.66;;;33.29;61.65
23223;BME280;11780;13.904;100.620;2023-03-24T08:59:24;100561.41;;;33.30;61.41
23223;BME280;11780;13.904;100.620;2023-03-24T09:01:54;100557.47;;;33.31;61.74
23223;BME280;11780;13.904;100.620;2023-03-24T09:04:42;100555.06;;;33.30;61.57
23223;BME280;11780;13.904;100.620;2023-03-24T09:07:33;100548.38;;;33.31;61.81
23223;BME280;11780;13.904;100.620;2023-03-24T09:10:05;100551.47;;;33.29;61.63
23223;BME280;11780;13.904;100.620;2023-03-24T09:12:37;100557.47;;;33.31;61.61
23223;BME280;11780;13.904;100.620;2023-03-24T09:15:22;100544.75;;;33.30;61.32
23223;BME280;11780;13.904;100.620;2023-03-24T09:18:11;100544.75;;;33.30;61.67
23223;BME280;11780;13.904;100.620;2023-03-24T09:20:41;100549.50;;;33.30;61.46
23223;BME280;11780;13.904;100.620;2023-03-24T09:23:12;100548.69;;;33.29;61.33
23223;BME280;11780;13.904;100.620;2023-03-24T09:25:43;100563.69;;;33.28;61.37
23223;BME280;11780;13.904;100.620;2023-03-24T09:28:14;100555.06;;;33.30;61.50
23223;BME280;11780;13.904;100.620;2023-03-24T09:30:45;100556.69;;;33.31;61.08
23223;BME280;11780;13.904;100.620;2023-03-24T09:33:16;100553.91;;;33.31;61.29
23223;BME280;11780;13.904;100.620;2023-03-24T09:35:56;100557.94;;;33.33;61.17
23223;BME280;11780;13.904;100.620;2023-03-24T09:38:27;100555.16;;;33.33;61.35
23223;BME280;11780;13.904;100.620;2023-03-24T09:41:00;100553.56;;;33.32;61.07
23223;BME280;11780;13.904;100.620;2023-03-24T09:44:06;100545.69;;;33.34;60.87
23223;BME280;11780;13.904;100.620;2023-03-24T09:46:43;100548.97;;;33.36;60.87
23223;BME280;11780;13.904;100.620;2023-03-24T09:49:35;100550.13;;;33.35;60.72
23223;BME280;11780;13.904;100.620;2023-03-24T09:52:11;100552.91;;;33.35;60.69
23223;BME280;11780;13.904;100.620;2023-03-24T09:54:48;100555.66;;;33.35;60.66
23223;BME280;11780;13.904;100.620;2023-03-24T09:57:26;100552.91;;;33.35;60.51
23223;BME280;11780;13.904;100.620;2023-03-24T09:59:57;100547.34;;;33.35;60.31
23223;BME280;11780;13.904;100.620;2023-03-24T10:02:38;100549.63;;;33.33;60.35
23223;BME280;11780;13.904;100.620;2023-03-24T10:05:36;100549.97;;;33.32;60.13
23223;BME280;11780;13.904;100.620;2023-03-24T10:14:45;100561.41;;;33.30;60.20
23223;BME280;11780;13.904;100.620;2023-03-24T10:20:31;100558.16;;;33.28;60.00
23223;BME280;11780;13.904;100.620;2023-03-24T10:29:22;100564.84;;;33.27;59.75
23223;BME280;11780;13.904;100.620;2023-03-24T10:32:01;100567.63;;;33.27;59.66
23223;BME280;11780;13.904;100.620;2023-03-24T10:34:33;100565.31;;;33.29;59.36
23223;BME280;11780;13.904;100.620;2023-03-24T10:37:22;100566.16;;;33.30;59.43
23223;BME280;11780;13.904;100.620;2023-03-24T10:39:52;100572.50;;;33.30;59.49
23223;BME280;11780;13.904;100.620;2023-03-24T10:42:32;100569.72;;;33.30;59.34
23223;BME280;11780;13.904;100.620;2023-03-24T10:45:28;100568.56;;;33.31;58.98
23223;BME280;11780;13.904;100.620;2023-03-24T10:48:00;100566.47;;;33.28;59.07
23223;BME280;11780;13.904;100.620;2023-03-24T10:50:50;100578.84;;;33.31;59.17
23223;BME280;11780;13.904;100.620;2023-03-24T10:53:22;100578.03;;;33.30;59.25
23223;BME280;11780;13.904;100.620;2023-03-24T10:55:53;100583.56;;;33.30;59.28
23223;BME280;11780;13.904;100.620;2023-03-24T10:58:43;100574.09;;;33.31;59.17
23223;BME280;11780;13.904;100.620;2023-03-24T11:01:28;100578.03;;;33.30;59.06
23223;BME280;11780;13.904;100.620;2023-03-24T11:04:18;100581.94;;;33.29;59.05
23223;BME280;11780;13.904;100.620;2023-03-24T11:07:16;100589.13;;;33.30;59.16
23223;BME280;11780;13.904;100.620;2023-03-24T11:12:30;100588.66;;;33.28;59.24
23223;BME280;11780;13.904;100.620;2023-03-24T11:15:31;100595.34;;;33.27;59.27
23223;BME280;11780;13.904;100.620;2023-03-24T11:21:05;100597.22;;;33.23;59.17
23223;BME280;11780;13.904;100.620;2023-03-24T11:23:41;100594.75;;;33.21;59.43
23223;BME280;11780;13.904;100.620;2023-03-24T11:26:18;100600.78;;;33.23;59.30
23223;BME280;11780;13.904;100.620;2023-03-24T11:28:53;100602.28;;;33.21;59.47
23223;BME280;11780;13.904;100.620;2023-03-24T11:31:31;100607.81;;;33.21;59.57
23223;BME280;11780;13.904;100.620;2023-03-24T11:39:35;100615.66;;;33.19;59.68
23223;BME280;11780;13.904;100.620;2023-03-24T11:42:15;100612.91;;;33.19;59.79
23223;BME280;11780;13.904;100.620;2023-03-24T11:44:50;100620.75;;;33.17;59.70
23223;BME280;11780;13.904;100.620;2023-03-24T11:47:36;100626.75;;;33.19;59.60
23223;BME280;11780;13.904;100.620;2023-03-24T11:50:34;100632.19;;;33.15;59.72
23223;BME280;11780;13.904;100.620;2023-03-24T11:53:28;100634.94;;;33.15;59.93
23223;BME280;11780;13.904;100.620;2023-03-24T11:58:44;100636.44;;;33.13;59.91
23223;BME280;11780;13.904;100.620;2023-03-24T12:05:16;100644.28;;;33.10;60.04
23223;BME280;11780;13.904;100.620;2023-03-24T12:11:14;100644.63;;;33.09;60.39
23223;BME280;11780;13.904;100.620;2023-03-24T13:33:11;100740.66;;;32.24;64.56
23223;BME280;11780;13.904;100.620;2023-03-24T13:38:37;100755.50;;;32.28;65.24
23223;BME280;11780;13.904;100.620;2023-03-24T13:41:22;100759.88;;;32.29;65.18
23223;BME280;11780;13.904;100.620;2023-03-24T13:44:01;100760.50;;;32.34;65.68
23223;BME280;11780;13.904;100.620;2023-03-24T13:49:32;100772.38;;;32.35;65.86
23223;BME280;11780;13.904;100.620;2023-03-24T13:52:38;100775.50;;;32.33;65.85
23223;BME280;11780;13.904;100.620;2023-03-24T13:55:36;100771.25;;;32.36;65.72
23223;BME280;11780;13.904;100.620;2023-03-24T13:58:23;100776.28;;;32.34;65.66
23223;BME280;11780;13.904;100.620;2023-03-24T14:04:13;100789.16;;;32.39;65.11
23223;BME280;11780;13.904;100.620;2023-03-24T14:06:44;100785.28;;;32.31;65.66
23223;BME280;11780;13.904;100.620;2023-03-24T14:17:41;100796.94;;;32.45;65.67
23223;BME280;11780;13.904;100.620;2023-03-24T14:20:27;100809.50;;;32.34;66.25
23223;BME280;11780;13.904;100.620;2023-03-24T14:23:30;100801.91;;;32.31;66.41
23223;BME280;11780;13.904;100.620;2023-03-24T14:26:15;100808.84;;;32.37;67.06
23223;BME280;11780;13.904;100.620;2023-03-24T14:28:59;100804.50;;;32.27;67.25
23223;BME280;11780;13.904;100.620;2023-03-24T14:31:51;100810.03;;;32.27;67.87
23223;BME280;11780;13.904;100.620;2023-03-24T14:34:55;100814.59;;;32.23;67.97
23223;BME280;11780;13.904;100.620;2023-03-24T14:37:29;100809.72;;;32.20;68.32
23223;BME280;11780;13.904;100.620;2023-03-24T14:40:02;100807.88;;;32.24;67.77
23223;BME280;11780;13.904;100.620;2023-03-24T14:45:38;100808.28;;;32.05;68.63
23223;BME280;11780;13.904;100.620;2023-03-24T14:48:40;100809.38;;;32.22;68.12
23223;BME280;11780;13.904;100.620;2023-03-24T14:57:07;100820.59;;;32.34;67.76
23223;BME280;11780;13.904;100.620;2023-03-24T15:02:39;100824.31;;;32.38;68.79
23223;BME280;11780;13.904;100.620;2023-03-24T15:11:00;100838.00;;;32.34;68.80
23223;BME280;11780;13.904;100.620;2023-03-24T15:21:40;100857.09;;;32.66;68.89
23223;BME280;11780;13.904;100.620;2023-03-24T15:24:30;100864.78;;;32.60;68.84
23223;BME280;11780;13.904;100.620;2023-03-24T15:27:16;100865.75;;;32.64;68.92
23223;BME280;11780;13.904;100.620;2023-03-24T15:29:53;100873.03;;;32.69;68.76
23223;BME280;11780;13.904;100.620;2023-03-24T15:32:25;100874.84;;;32.65;68.97
23223;BME280;11780;13.904;100.620;2023-03-24T15:34:58;100872.69;;;32.71;68.87
23223;BME280;11780;13.904;100.620;2023-03-24T15:37:37;100871.13;;;32.61;69.27
23223;BME280;11780;13.904;100.620;2023-03-24T15:43:01;100867.00;;;32.67;68.97
23223;BME280;11780;13.904;100.620;2023-03-24T15:48:22;100870.28;;;32.69;69.04
23223;BME280;11780;13.904;100.620;2023-03-24T15:51:00;100871.59;;;32.63;69.20
23223;BME280;11780;13.904;100.620;2023-03-24T15:53:56;100876.38;;;32.54;69.53
23223;BME280;11780;13.904;100.620;2023-03-24T15:56:30;100876.72;;;32.52;69.90
23223;BME280;11780;13.904;100.620;2023-03-24T16:01:41;100871.00;;;32.48;69.97
23223;BME280;11780;13.904;100.620;2023-03-24T16:04:17;100876.09;;;32.46;70.14
23223;BME280;11780;13.904;100.620;2023-03-24T16:06:51;100878.03;;;32.46;70.12
23223;BME280;11780;13.904;100.620;2023-03-24T16:09:23;100873.97;;;32.43;70.34
23223;BME280;11780;13.904;100.620;2023-03-24T16:11:55;100876.75;;;32.43;70.15
23223;BME280;11780;13.904;100.620;2023-03-24T16:14:28;100876.25;;;32.41;70.42
23223;BME280;11780;13.904;100.620;2023-03-24T16:17:00;100873.81;;;32.40;70.61
23223;BME280;11780;13.904;100.620;2023-03-24T16:19:31;100872.34;;;32.42;70.16
23223;BME280;11780;13.904;100.620;2023-03-24T16:22:13;100880.16;;;32.40;70.46
23223;BME280;11780;13.904;100.620;2023-03-24T16:24:43;100876.91;;;32.38;70.63
23223;BME280;11780;13.904;100.620;2023-03-24T16:27:14;100881.78;;;32.41;70.26
23223;BME280;11780;13.904;100.620;2023-03-24T16:29:46;100879.19;;;32.36;70.73
23223;BME280;11780;13.904;100.620;2023-03-24T16:32:16;100881.97;;;32.36;70.70
23223;BME280;11780;13.904;100.620;2023-03-24T16:34:46;100876.78;;;32.34;70.94
23223;BME280;11780;13.904;100.620;2023-03-24T16:37:17;100885.88;;;32.35;70.26
23223;BME280;11780;13.904;100.620;2023-03-24T16:39:47;100891.41;;;32.35;70.73
23223;BME280;11780;13.904;100.620;2023-03-24T16:42:18;100888.16;;;32.33;70.42
23223;BME280;11780;13.904;100.620;2023-03-24T16:44:48;100895.66;;;32.32;70.77
23223;BME280;11780;13.904;100.620;2023-03-24T16:47:18;100894.84;;;32.32;70.59
23223;BME280;11780;13.904;100.620;2023-03-24T16:49:50;100899.91;;;32.30;70.93
23223;BME280;11780;13.904;100.620;2023-03-24T16:52:20;100899.91;;;32.30;70.99
23223;BME280;11780;13.904;100.620;2023-03-24T16:54:51;100901.84;;;32.29;70.55
23223;BME280;11780;13.904;100.620;2023-03-24T16:57:23;100903.81;;;32.29;70.65
23223;BME280;11780;13.904;100.620;2023-03-24T16:59:53;100904.63;;;32.29;70.13
23223;BME280;11780;13.904;100.620;2023-03-24T17:02:41;100904.97;;;32.28;69.97
23223;BME280;11780;13.904;100.620;2023-03-24T17:05:23;100904.47;;;32.26;70.26
23223;BME280;11780;13.904;100.620;2023-03-24T17:07:56;100907.25;;;32.26;70.52
23223;BME280;11780;13.904;100.620;2023-03-24T17:10:27;100906.38;;;32.25;70.21